sensor_id;sensor_type;location;lat;lon;timestamp;temperature;humidity
61398;DHT22;47267;48.130;-2.040;2022-12-07T04:25:08;18.20;52.50
61398;DHT22;47267;48.130;-2.040;2022-12-07T04:27:34;17.40;47.50
61398;DHT22;47267;48.130;-2.040;2022-12-07T04:30:00;17.30;47.50
61398;DHT22;47267;48.130;-2.040;2022-12-07T04:32:25;17.30;47.50
61398;DHT22;47267;48.130;-2.040;2022-12-07T04:34:51;17.30;47.60
61398;DHT22;47267;48.130;-2.040;2022-12-07T04:37:17;17.30;47.50
61398;DHT22;47267;48.130;-2.040;2022-12-07T04:39:43;17.30;47.50
61398;DHT22;47267;48.130;-2.040;2022-12-07T04:42:10;17.30;47.60
61398;DHT22;47267;48.130;-2.040;2022-12-07T04:44:36;17.30;47.50
61398;DHT22;47267;48.130;-2.040;2022-12-07T04:47:02;17.30;47.50
61398;DHT22;47267;48.130;-2.040;2022-12-07T04:49:28;17.30;47.60
61398;DHT22;47267;48.130;-2.040;2022-12-07T04:51:54;17.30;47.50
61398;DHT22;47267;48.130;-2.040;2022-12-07T04:54:20;17.20;47.40
61398;DHT22;47267;48.130;-2.040;2022-12-07T04:56:46;17.30;47.50
61398;DHT22;47267;48.130;-2.040;2022-12-07T04:59:12;17.30;47.60
61398;DHT22;47267;48.130;-2.040;2022-12-07T05:01:44;17.20;47.50
61398;DHT22;47267;48.130;-2.040;2022-12-07T05:04:10;17.20;47.50
61398;DHT22;47267;48.130;-2.040;2022-12-07T05:06:37;17.20;47.40
61398;DHT22;47267;48.130;-2.040;2022-12-07T05:09:03;17.20;47.40
61398;DHT22;47267;48.130;-2.040;2022-12-07T05:11:29;17.20;47.40
61398;DHT22;47267;48.130;-2.040;2022-12-07T05:14:13;17.20;47.40
61398;DHT22;47267;48.130;-2.040;2022-12-07T05:16:39;17.20;47.40
61398;DHT22;47267;48.130;-2.040;2022-12-07T05:19:06;17.20;47.40
61398;DHT22;47267;48.130;-2.040;2022-12-07T05:21:32;17.20;47.30
61398;DHT22;47267;48.130;-2.040;2022-12-07T05:23:58;17.20;47.40
61398;DHT22;47267;48.130;-2.040;2022-12-07T05:26:23;17.20;47.40
61398;DHT22;47267;48.130;-2.040;2022-12-07T16:18:07;17.20;47.40
61398;DHT22;47267;48.130;-2.040;2022-12-07T16:20:33;20.00;51.20
61398;DHT22;47267;48.130;-2.040;2022-12-07T16:22:59;19.90;51.10
61398;DHT22;47267;48.130;-2.040;2022-12-07T16:25:25;19.90;51.10
61398;DHT22;47267;48.130;-2.040;2022-12-07T16:27:52;19.90;51.10
61398;DHT22;47267;48.130;-2.040;2022-12-07T16:30:18;19.90;51.10
61398;DHT22;47267;48.130;-2.040;2022-12-07T16:49:55;20.00;51.10
61398;DHT22;47267;48.130;-2.040;2022-12-07T16:52:21;19.90;50.90
61398;DHT22;47267;48.130;-2.040;2022-12-07T16:54:48;19.90;50.90
61398;DHT22;47267;48.130;-2.040;2022-12-07T16:57:16;19.90;50.90
61398;DHT22;47267;48.130;-2.040;2022-12-07T16:59:41;19.90;50.80
61398;DHT22;47267;48.130;-2.040;2022-12-07T17:02:10;19.80;50.80
61398;DHT22;47267;48.130;-2.040;2022-12-07T17:04:36;19.80;50.70
61398;DHT22;47267;48.130;-2.040;2022-12-07T17:07:05;19.80;50.70
61398;DHT22;47267;48.130;-2.040;2022-12-07T17:09:31;19.80;50.70
61398;DHT22;47267;48.130;-2.040;2022-12-07T17:11:57;19.80;50.60
61398;DHT22;47267;48.130;-2.040;2022-12-07T17:14:23;19.80;51.10
61398;DHT22;47267;48.130;-2.040;2022-12-07T17:17:07;19.70;50.40
61398;DHT22;47267;48.130;-2.040;2022-12-07T17:19:33;19.70;50.30
61398;DHT22;47267;48.130;-2.040;2022-12-07T17:21:59;19.70;50.30
61398;DHT22;47267;48.130;-2.040;2022-12-07T17:24:24;19.60;50.10
61398;DHT22;47267;48.130;-2.040;2022-12-07T17:26:50;19.60;50.00
61398;DHT22;47267;48.130;-2.040;2022-12-07T17:29:17;19.70;49.80
61398;DHT22;47267;48.130;-2.040;2022-12-07T18:01:43;19.60;49.90
61398;DHT22;47267;48.130;-2.040;2022-12-07T18:04:08;19.40;49.40
61398;DHT22;47267;48.130;-2.040;2022-12-07T18:06:35;19.30;49.10
61398;DHT22;47267;48.130;-2.040;2022-12-07T18:09:01;19.30;49.00
61398;DHT22;47267;48.130;-2.040;2022-12-07T18:11:27;19.30;49.00
61398;DHT22;47267;48.130;-2.040;2022-12-07T18:13:53;19.30;49.00
61398;DHT22;47267;48.130;-2.040;2022-12-07T18:16:21;19.20;48.80
61398;DHT22;47267;48.130;-2.040;2022-12-07T18:18:48;19.20;48.80
61398;DHT22;47267;48.130;-2.040;2022-12-07T18:21:23;19.20;48.80
61398;DHT22;47267;48.130;-2.040;2022-12-07T18:23:51;19.20;48.70
61398;DHT22;47267;48.130;-2.040;2022-12-07T18:26:18;19.20;48.80
61398;DHT22;47267;48.130;-2.040;2022-12-07T18:28:44;19.20;48.80
61398;DHT22;47267;48.130;-2.040;2022-12-07T18:31:10;19.10;48.60
61398;DHT22;47267;48.130;-2.040;2022-12-07T18:33:38;19.20;48.70
61398;DHT22;47267;48.130;-2.040;2022-12-07T18:36:05;19.10;48.60
61398;DHT22;47267;48.130;-2.040;2022-12-07T18:38:32;19.10;48.50
61398;DHT22;47267;48.130;-2.040;2022-12-07T18:40:59;19.10;48.50
61398;DHT22;47267;48.130;-2.040;2022-12-07T18:43:25;19.10;48.50
61398;DHT22;47267;48.130;-2.040;2022-12-07T18:45:51;19.10;48.50
61398;DHT22;47267;48.130;-2.040;2022-12-07T18:48:19;19.00;48.30
